sensor_id;sensor_type;location;lat;lon;timestamp;pressure;altitude;pressure_sealevel;temperature;humidity
47785;BME280;35233;55.686;37.848;2023-03-13T00:01:22;98324.44;;;13.23;41.53
47785;BME280;35233;55.686;37.848;2023-03-13T00:03:48;98317.22;;;13.10;40.94
47785;BME280;35233;55.686;37.848;2023-03-13T00:06:14;98334.28;;;13.21;40.81
47785;BME280;35233;55.686;37.848;2023-03-13T00:08:40;98342.16;;;13.22;40.80
47785;BME280;35233;55.686;37.848;2023-03-13T00:11:07;98345.50;;;13.26;40.96
47785;BME280;35233;55.686;37.848;2023-03-13T00:13:34;98324.59;;;13.05;41.02
47785;BME280;35233;55.686;37.848;2023-03-13T00:16:02;98344.75;;;13.08;41.61
47785;BME280;35233;55.686;37.848;2023-03-13T00:18:28;98338.69;;;13.06;41.43
47785;BME280;35233;55.686;37.848;2023-03-13T00:20:58;98360.00;;;13.04;41.62
47785;BME280;35233;55.686;37.848;2023-03-13T00:23:23;98362.28;;;13.10;41.67
47785;BME280;35233;55.686;37.848;2023-03-13T00:25:56;98353.75;;;13.05;40.88
47785;BME280;35233;55.686;37.848;2023-03-13T00:28:21;98345.38;;;12.97;41.00
47785;BME280;35233;55.686;37.848;2023-03-13T00:30:47;98366.09;;;13.06;41.57
47785;BME280;35233;55.686;37.848;2023-03-13T00:33:12;98369.41;;;13.10;41.25
47785;BME280;35233;55.686;37.848;2023-03-13T00:35:38;98366.81;;;13.08;41.04
47785;BME280;35233;55.686;37.848;2023-03-13T00:38:04;98372.00;;;12.96;41.18
47785;BME280;35233;55.686;37.848;2023-03-13T00:40:29;98386.94;;;12.97;41.48
47785;BME280;35233;55.686;37.848;2023-03-13T00:42:54;98396.00;;;13.08;40.81
47785;BME280;35233;55.686;37.848;2023-03-13T00:45:20;98387.66;;;13.00;41.54
47785;BME280;35233;55.686;37.848;2023-03-13T00:47:45;98378.16;;;12.96;41.79
47785;BME280;35233;55.686;37.848;2023-03-13T00:50:11;98391.34;;;12.98;41.66
47785;BME280;35233;55.686;37.848;2023-03-13T00:52:36;98382.59;;;12.96;40.96
47785;BME280;35233;55.686;37.848;2023-03-13T00:55:02;98394.25;;;12.93;41.30
47785;BME280;35233;55.686;37.848;2023-03-13T00:57:28;98396.22;;;12.89;41.27
47785;BME280;35233;55.686;37.848;2023-03-13T00:59:53;98419.53;;;12.99;41.05
47785;BME280;35233;55.686;37.848;2023-03-13T01:02:19;98410.25;;;12.91;41.17
47785;BME280;35233;55.686;37.848;2023-03-13T01:04:44;98405.78;;;12.92;40.96
47785;BME280;35233;55.686;37.848;2023-03-13T01:07:10;98427.91;;;12.91;41.69
47785;BME280;35233;55.686;37.848;2023-03-13T01:09:35;98429.47;;;12.95;41.57
47785;BME280;35233;55.686;37.848;2023-03-13T01:12:01;98438.63;;;12.89;41.70
47785;BME280;35233;55.686;37.848;2023-03-13T01:14:26;98436.06;;;12.88;40.96
47785;BME280;35233;55.686;37.848;2023-03-13T01:16:52;98449.22;;;12.89;41.58
47785;BME280;35233;55.686;37.848;2023-03-13T01:19:18;98443.50;;;12.81;41.20
47785;BME280;35233;55.686;37.848;2023-03-13T01:21:44;98451.78;;;12.91;41.24
47785;BME280;35233;55.686;37.848;2023-03-13T01:24:10;98447.53;;;12.73;41.52
47785;BME280;35233;55.686;37.848;2023-03-13T01:26:36;98465.56;;;12.82;41.18
47785;BME280;35233;55.686;37.848;2023-03-13T01:29:01;98461.22;;;12.81;41.02
47785;BME280;35233;55.686;37.848;2023-03-13T01:31:32;98467.59;;;12.93;41.39
47785;BME280;35233;55.686;37.848;2023-03-13T01:34:01;98463.25;;;12.76;41.12
47785;BME280;35233;55.686;37.848;2023-03-13T01:36:27;98480.69;;;12.80;41.25
47785;BME280;35233;55.686;37.848;2023-03-13T01:38:55;98485.41;;;12.75;41.87
47785;BME280;35233;55.686;37.848;2023-03-13T01:41:22;98492.84;;;12.84;41.18
47785;BME280;35233;55.686;37.848;2023-03-13T01:43:48;98499.09;;;12.83;41.49
47785;BME280;35233;55.686;37.848;2023-03-13T01:46:15;98503.00;;;12.76;41.39
47785;BME280;35233;55.686;37.848;2023-03-13T01:53:43;98519.84;;;12.75;40.81
47785;BME280;35233;55.686;37.848;2023-03-13T01:56:13;98526.59;;;12.64;41.37
47785;BME280;35233;55.686;37.848;2023-03-13T01:58:41;98535.22;;;12.68;41.54
47785;BME280;35233;55.686;37.848;2023-03-13T02:01:08;98525.06;;;12.60;41.51
47785;BME280;35233;55.686;37.848;2023-03-13T02:03:34;98531.97;;;12.63;41.08
47785;BME280;35233;55.686;37.848;2023-03-13T02:06:02;98545.75;;;12.69;40.86
47785;BME280;35233;55.686;37.848;2023-03-13T02:08:37;98545.47;;;12.58;41.68
47785;BME280;35233;55.686;37.848;2023-03-13T02:13:58;98568.53;;;12.56;41.82
47785;BME280;35233;55.686;37.848;2023-03-13T02:16:25;98574.53;;;12.60;41.66
47785;BME280;35233;55.686;37.848;2023-03-13T02:18:51;98578.09;;;12.59;41.31
47785;BME280;35233;55.686;37.848;2023-03-13T02:21:29;98572.22;;;12.54;41.12
47785;BME280;35233;55.686;37.848;2023-03-13T02:26:22;98595.50;;;12.47;41.29
47785;BME280;35233;55.686;37.848;2023-03-13T02:28:48;98584.31;;;12.42;41.87
47785;BME280;35233;55.686;37.848;2023-03-13T02:31:14;98603.22;;;12.52;41.65
47785;BME280;35233;55.686;37.848;2023-03-13T02:33:41;98607.59;;;12.53;41.54
47785;BME280;35233;55.686;37.848;2023-03-13T02:36:07;98610.88;;;12.40;41.90
47785;BME280;35233;55.686;37.848;2023-03-13T02:38:39;98623.75;;;12.48;41.34
47785;BME280;35233;55.686;37.848;2023-03-13T02:41:07;98613.84;;;12.34;41.56
47785;BME280;35233;55.686;37.848;2023-03-13T02:43:35;98627.47;;;12.44;41.72
47785;BME280;35233;55.686;37.848;2023-03-13T02:46:12;98611.84;;;12.39;41.19
47785;BME280;35233;55.686;37.848;2023-03-13T02:48:44;98624.78;;;12.28;41.65
47785;BME280;35233;55.686;37.848;2023-03-13T02:51:40;98638.38;;;12.38;41.85
47785;BME280;35233;55.686;37.848;2023-03-13T02:54:12;98639.22;;;12.38;41.11
47785;BME280;35233;55.686;37.848;2023-03-13T02:56:41;98647.44;;;12.34;41.31
47785;BME280;35233;55.686;37.848;2023-03-13T02:59:07;98647.13;;;12.40;41.63
47785;BME280;35233;55.686;37.848;2023-03-13T03:01:32;98652.72;;;12.34;41.08
47785;BME280;35233;55.686;37.848;2023-03-13T03:03:58;98656.13;;;12.36;41.60
47785;BME280;35233;55.686;37.848;2023-03-13T03:06:23;98658.09;;;12.32;41.29
47785;BME280;35233;55.686;37.848;2023-03-13T03:08:49;98654.50;;;12.33;41.64
47785;BME280;35233;55.686;37.848;2023-03-13T03:11:15;98666.19;;;12.29;41.15
47785;BME280;35233;55.686;37.848;2023-03-13T03:13:41;98660.44;;;12.21;41.62
47785;BME280;35233;55.686;37.848;2023-03-13T03:16:08;98681.38;;;12.26;41.72
47785;BME280;35233;55.686;37.848;2023-03-13T03:18:35;98683.09;;;12.27;41.28
47785;BME280;35233;55.686;37.848;2023-03-13T03:21:01;98683.19;;;12.25;41.51
47785;BME280;35233;55.686;37.848;2023-03-13T03:23:33;98681.38;;;12.26;41.29
47785;BME280;35233;55.686;37.848;2023-03-13T03:25:59;98685.69;;;12.28;41.06
47785;BME280;35233;55.686;37.848;2023-03-13T03:28:25;98684.09;;;12.24;41.59
47785;BME280;35233;55.686;37.848;2023-03-13T03:30:50;98690.41;;;12.21;41.65
47785;BME280;35233;55.686;37.848;2023-03-13T03:33:19;98695.69;;;12.21;40.98
47785;BME280;35233;55.686;37.848;2023-03-13T03:35:44;98701.16;;;12.18;41.38
47785;BME280;35233;55.686;37.848;2023-03-13T03:38:10;98691.50;;;12.17;41.26
47785;BME280;35233;55.686;37.848;2023-03-13T03:40:35;98689.16;;;12.11;41.54
47785;BME280;35233;55.686;37.848;2023-03-13T03:43:01;98693.38;;;12.15;41.17
47785;BME280;35233;55.686;37.848;2023-03-13T03:45:26;98711.75;;;12.18;41.44
47785;BME280;35233;55.686;37.848;2023-03-13T03:47:52;98717.19;;;12.15;41.59
47785;BME280;35233;55.686;37.848;2023-03-13T03:50:17;98708.63;;;12.10;41.36
47785;BME280;35233;55.686;37.848;2023-03-13T03:52:43;98708.63;;;12.10;41.63
47785;BME280;35233;55.686;37.848;2023-03-13T03:55:09;98720.56;;;12.19;41.03
47785;BME280;35233;55.686;37.848;2023-03-13T03:57:34;98713.16;;;12.08;41.19
47785;BME280;35233;55.686;37.848;2023-03-13T04:00:00;98729.50;;;12.16;41.71
47785;BME280;35233;55.686;37.848;2023-03-13T04:02:25;98731.31;;;12.16;41.27
47785;BME280;35233;55.686;37.848;2023-03-13T04:04:51;98730.72;;;12.09;41.68
47785;BME280;35233;55.686;37.848;2023-03-13T04:07:16;98731.44;;;12.13;41.24
47785;BME280;35233;55.686;37.848;2023-03-13T04:09:42;98736.13;;;12.08;41.23
47785;BME280;35233;55.686;37.848;2023-03-13T04:12:07;98739.31;;;12.14;40.77
47785;BME280;35233;55.686;37.848;2023-03-13T04:14:33;98739.31;;;12.14;41.01
47785;BME280;35233;55.686;37.848;2023-03-13T04:16:58;98739.09;;;12.19;40.91
47785;BME280;35233;55.686;37.848;2023-03-13T04:19:24;98752.59;;;12.13;41.11
47785;BME280;35233;55.686;37.848;2023-03-13T04:21:49;98738.81;;;12.06;40.99
47785;BME280;35233;55.686;37.848;2023-03-13T04:24:15;98760.13;;;12.22;40.96
47785;BME280;35233;55.686;37.848;2023-03-13T04:26:40;98761.44;;;12.13;41.01
47785;BME280;35233;55.686;37.848;2023-03-13T04:29:06;98752.00;;;12.08;41.32
47785;BME280;35233;55.686;37.848;2023-03-13T04:31:31;98763.13;;;12.14;41.01
47785;BME280;35233;55.686;37.848;2023-03-13T04:33:57;98762.38;;;12.30;40.50
47785;BME280;35233;55.686;37.848;2023-03-13T04:36:23;98771.63;;;12.21;40.59
47785;BME280;35233;55.686;37.848;2023-03-13T04:38:48;98785.56;;;12.24;40.66
47785;BME280;35233;55.686;37.848;2023-03-13T04:41:14;98780.59;;;12.18;40.91
47785;BME280;35233;55.686;37.848;2023-03-13T04:43:40;98790.25;;;12.19;40.82
47785;BME280;35233;55.686;37.848;2023-03-13T04:46:05;98796.25;;;12.23;40.69
47785;BME280;35233;55.686;37.848;2023-03-13T04:48:30;98798.19;;;12.19;40.38
47785;BME280;35233;55.686;37.848;2023-03-13T04:50:56;98812.28;;;12.20;40.20
47785;BME280;35233;55.686;37.848;2023-03-13T04:53:22;98816.78;;;12.18;40.32
47785;BME280;35233;55.686;37.848;2023-03-13T04:55:47;98828.03;;;12.23;40.57
47785;BME280;35233;55.686;37.848;2023-03-13T04:58:13;98834.81;;;12.29;40.51
47785;BME280;35233;55.686;37.848;2023-03-13T05:00:39;98821.72;;;12.26;40.16
47785;BME280;35233;55.686;37.848;2023-03-13T05:03:05;98833.84;;;15.69;36.64
47785;BME280;35233;55.686;37.848;2023-03-13T05:05:33;98836.78;;;17.01;35.20
47785;BME280;35233;55.686;37.848;2023-03-13T05:07:59;98824.78;;;17.59;33.39
47785;BME280;35233;55.686;37.848;2023-03-13T05:10:24;98841.66;;;17.85;33.25
47785;BME280;35233;55.686;37.848;2023-03-13T05:12:50;98844.63;;;18.06;32.36
47785;BME280;35233;55.686;37.848;2023-03-13T05:15:15;98848.03;;;18.21;32.12
47785;BME280;35233;55.686;37.848;2023-03-13T05:17:41;98838.03;;;18.23;32.04
47785;BME280;35233;55.686;37.848;2023-03-13T05:20:07;98855.91;;;18.60;31.35
47785;BME280;35233;55.686;37.848;2023-03-13T05:22:38;98855.63;;;18.75;30.80
47785;BME280;35233;55.686;37.848;2023-03-13T05:25:04;98857.38;;;18.64;30.90
47785;BME280;35233;55.686;37.848;2023-03-13T05:27:30;98861.59;;;18.79;30.57
47785;BME280;35233;55.686;37.848;2023-03-13T05:29:55;98869.44;;;18.82;30.43
47785;BME280;35233;55.686;37.848;2023-03-13T05:32:21;98875.91;;;18.91;30.37
47785;BME280;35233;55.686;37.848;2023-03-13T05:34:46;98874.97;;;19.03;30.07
47785;BME280;35233;55.686;37.848;2023-03-13T05:37:12;98884.41;;;19.20;29.90
47785;BME280;35233;55.686;37.848;2023-03-13T05:39:37;98882.22;;;19.25;29.65
47785;BME280;35233;55.686;37.848;2023-03-13T05:42:03;98887.31;;;19.52;29.44
47785;BME280;35233;55.686;37.848;2023-03-13T05:44:28;98895.44;;;19.51;29.34
47785;BME280;35233;55.686;37.848;2023-03-13T05:46:54;98891.69;;;19.53;29.34
47785;BME280;35233;55.686;37.848;2023-03-13T05:49:19;98893.03;;;19.59;29.18
47785;BME280;35233;55.686;37.848;2023-03-13T05:51:45;98895.38;;;19.63;29.19
47785;BME280;35233;55.686;37.848;2023-03-13T05:54:10;98899.91;;;19.74;28.98
47785;BME280;35233;55.686;37.848;2023-03-13T05:56:36;98896.28;;;19.75;28.90
47785;BME280;35233;55.686;37.848;2023-03-13T05:59:01;98906.00;;;19.76;28.87
47785;BME280;35233;55.686;37.848;2023-03-13T06:01:27;98896.28;;;19.75;28.96
47785;BME280;35233;55.686;37.848;2023-03-13T06:03:53;98906.97;;;19.86;29.12
47785;BME280;35233;55.686;37.848;2023-03-13T06:06:18;98908.22;;;19.94;28.96
47785;BME280;35233;55.686;37.848;2023-03-13T06:08:44;98908.81;;;19.97;28.66
47785;BME280;35233;55.686;37.848;2023-03-13T06:11:09;98916.63;;;20.00;28.54
47785;BME280;35233;55.686;37.848;2023-03-13T06:13:35;98916.97;;;20.07;28.50
47785;BME280;35233;55.686;37.848;2023-03-13T06:16:00;98917.97;;;20.17;28.33
47785;BME280;35233;55.686;37.848;2023-03-13T06:18:26;98913.09;;;20.11;28.48
47785;BME280;35233;55.686;37.848;2023-03-13T06:20:57;98923.44;;;20.27;28.61
47785;BME280;35233;55.686;37.848;2023-03-13T06:23:23;98932.22;;;20.29;28.81
47785;BME280;35233;55.686;37.848;2023-03-13T06:25:49;98933.06;;;20.29;28.60
47785;BME280;35233;55.686;37.848;2023-03-13T06:28:15;98932.84;;;20.32;28.81
47785;BME280;35233;55.686;37.848;2023-03-13T06:30:41;98919.41;;;20.21;28.50
47785;BME280;35233;55.686;37.848;2023-03-13T06:33:06;98934.31;;;20.37;28.75
47785;BME280;35233;55.686;37.848;2023-03-13T06:35:31;98941.63;;;20.34;28.89
47785;BME280;35233;55.686;37.848;2023-03-13T06:37:57;98936.25;;;20.34;28.67
47785;BME280;35233;55.686;37.848;2023-03-13T06:40:22;98953.81;;;20.39;28.63
47785;BME280;35233;55.686;37.848;2023-03-13T06:42:48;98951.59;;;20.44;29.20
47785;BME280;35233;55.686;37.848;2023-03-13T06:45:13;98958.09;;;20.52;29.22
47785;BME280;35233;55.686;37.848;2023-03-13T06:47:39;98960.16;;;20.49;29.14
47785;BME280;35233;55.686;37.848;2023-03-13T06:50:05;98973.84;;;20.57;29.09
47785;BME280;35233;55.686;37.848;2023-03-13T06:52:30;98970.91;;;20.60;28.99
47785;BME280;35233;55.686;37.848;2023-03-13T06:54:56;98974.19;;;20.64;28.95
47785;BME280;35233;55.686;37.848;2023-03-13T06:57:21;98960.88;;;20.62;28.97
47785;BME280;35233;55.686;37.848;2023-03-13T06:59:47;98971.16;;;20.68;28.75
47785;BME280;35233;55.686;37.848;2023-03-13T07:02:12;98966.75;;;20.67;28.68
47785;BME280;35233;55.686;37.848;2023-03-13T07:04:38;98980.03;;;20.69;28.57
47785;BME280;35233;55.686;37.848;2023-03-13T07:07:04;98984.06;;;20.74;28.54
47785;BME280;35233;55.686;37.848;2023-03-13T07:09:29;98999.06;;;20.77;28.57
47785;BME280;35233;55.686;37.848;2023-03-13T07:11:55;98988.09;;;20.80;28.73
47785;BME280;35233;55.686;37.848;2023-03-13T07:14:22;98997.22;;;20.89;28.32
47785;BME280;35233;55.686;37.848;2023-03-13T07:16:47;99003.31;;;20.91;28.12
47785;BME280;35233;55.686;37.848;2023-03-13T07:19:13;99005.75;;;20.94;27.73
47785;BME280;35233;55.686;37.848;2023-03-13T07:21:39;98996.81;;;21.05;28.16
47785;BME280;35233;55.686;37.848;2023-03-13T07:24:05;99007.03;;;21.22;27.66
47785;BME280;35233;55.686;37.848;2023-03-13T07:26:31;99011.63;;;21.31;27.64
47785;BME280;35233;55.686;37.848;2023-03-13T07:28:57;99007.97;;;21.32;27.57
47785;BME280;35233;55.686;37.848;2023-03-13T07:31:22;99016.53;;;21.26;27.70
47785;BME280;35233;55.686;37.848;2023-03-13T07:33:49;99019.56;;;21.33;27.66
47785;BME280;35233;55.686;37.848;2023-03-13T07:36:17;99033.97;;;21.32;27.41
47785;BME280;35233;55.686;37.848;2023-03-13T07:38:46;99040.09;;;21.45;27.50
47785;BME280;35233;55.686;37.848;2023-03-13T07:41:12;99034.81;;;21.43;27.11
47785;BME280;35233;55.686;37.848;2023-03-13T07:43:37;99036.66;;;21.43;27.35
47785;BME280;35233;55.686;37.848;2023-03-13T07:46:05;99029.56;;;21.53;26.81
47785;BME280;35233;55.686;37.848;2023-03-13T07:48:36;99036.00;;;21.62;27.04
47785;BME280;35233;55.686;37.848;2023-03-13T07:51:07;99051.50;;;21.58;27.28
47785;BME280;35233;55.686;37.848;2023-03-13T07:53:33;99052.00;;;21.52;26.97
47785;BME280;35233;55.686;37.848;2023-03-13T07:56:03;99054.00;;;21.50;27.39
47785;BME280;35233;55.686;37.848;2023-03-13T07:58:32;99067.50;;;21.60;27.36
47785;BME280;35233;55.686;37.848;2023-03-13T08:00:58;99060.78;;;21.65;27.22
47785;BME280;35233;55.686;37.848;2023-03-13T08:03:23;99068.09;;;21.63;27.28
47785;BME280;35233;55.686;37.848;2023-03-13T08:06:24;99074.22;;;21.65;27.22
47785;BME280;35233;55.686;37.848;2023-03-13T08:08:51;99071.53;;;21.65;26.79
47785;BME280;35233;55.686;37.848;2023-03-13T08:11:22;99078.16;;;21.61;27.44
47785;BME280;35233;55.686;37.848;2023-03-13T08:13:50;99074.13;;;21.56;26.96
47785;BME280;35233;55.686;37.848;2023-03-13T08:16:18;99083.06;;;21.56;27.10
47785;BME280;35233;55.686;37.848;2023-03-13T08:18:46;99081.81;;;21.60;27.22
47785;BME280;35233;55.686;37.848;2023-03-13T08:21:17;99081.31;;;21.55;27.18
47785;BME280;35233;55.686;37.848;2023-03-13T08:23:43;99066.94;;;21.45;26.90
47785;BME280;35233;55.686;37.848;2023-03-13T08:28:35;99081.97;;;21.47;26.95
47785;BME280;35233;55.686;37.848;2023-03-13T08:31:12;99084.22;;;21.63;26.80
47785;BME280;35233;55.686;37.848;2023-03-13T08:33:39;99089.72;;;21.73;26.48
47785;BME280;35233;55.686;37.848;2023-03-13T08:36:23;99093.97;;;21.76;26.90
47785;BME280;35233;55.686;37.848;2023-03-13T08:38:51;99092.84;;;21.78;26.41
47785;BME280;35233;55.686;37.848;2023-03-13T08:41:19;99088.09;;;21.82;26.27
47785;BME280;35233;55.686;37.848;2023-03-13T08:43:45;99083.03;;;21.88;26.09
47785;BME280;35233;55.686;37.848;2023-03-13T08:46:11;99081.25;;;21.78;26.44
47785;BME280;35233;55.686;37.848;2023-03-13T08:48:37;99099.22;;;21.77;26.22
47785;BME280;35233;55.686;37.848;2023-03-13T08:51:11;99099.16;;;21.67;26.23
47785;BME280;35233;55.686;37.848;2023-03-13T08:53:38;99100.13;;;21.55;26.41
47785;BME280;35233;55.686;37.848;2023-03-13T08:56:05;99101.88;;;21.45;26.74
47785;BME280;35233;55.686;37.848;2023-03-13T08:58:31;99098.69;;;21.51;26.92
47785;BME280;35233;55.686;37.848;2023-03-13T09:01:05;99106.72;;;21.62;26.68
47785;BME280;35233;55.686;37.848;2023-03-13T09:03:31;99109.66;;;21.70;26.46
47785;BME280;35233;55.686;37.848;2023-03-13T09:05:58;99113.16;;;21.82;26.36
47785;BME280;35233;55.686;37.848;2023-03-13T09:08:24;99114.22;;;21.91;26.05
47785;BME280;35233;55.686;37.848;2023-03-13T09:10:58;99108.44;;;21.96;26.03
47785;BME280;35233;55.686;37.848;2023-03-13T09:13:25;99122.41;;;22.10;26.08
47785;BME280;35233;55.686;37.848;2023-03-13T09:16:00;99132.31;;;22.21;25.67
47785;BME280;35233;55.686;37.848;2023-03-13T09:18:26;99130.22;;;22.13;25.75
47785;BME280;35233;55.686;37.848;2023-03-13T09:20:52;99131.38;;;22.11;25.92
47785;BME280;35233;55.686;37.848;2023-03-13T09:23:18;99131.63;;;22.08;25.71
47785;BME280;35233;55.686;37.848;2023-03-13T09:25:44;99132.84;;;22.04;25.93
47785;BME280;35233;55.686;37.848;2023-03-13T09:28:09;99127.72;;;22.01;25.94
47785;BME280;35233;55.686;37.848;2023-03-13T09:30:35;99128.56;;;22.01;26.03
47785;BME280;35233;55.686;37.848;2023-03-13T09:33:00;99137.84;;;22.08;26.00
47785;BME280;35233;55.686;37.848;2023-03-13T09:35:26;99153.00;;;22.09;26.09
47785;BME280;35233;55.686;37.848;2023-03-13T09:37:52;99155.31;;;22.14;26.19
47785;BME280;35233;55.686;37.848;2023-03-13T09:40:19;99158.38;;;22.21;25.58
47785;BME280;35233;55.686;37.848;2023-03-13T09:42:48;99149.31;;;22.22;25.71
47785;BME280;35233;55.686;37.848;2023-03-13T09:45:23;99153.25;;;22.06;25.92
47785;BME280;35233;55.686;37.848;2023-03-13T09:51:22;99157.47;;;21.99;26.12
47785;BME280;35233;55.686;37.848;2023-03-13T09:54:09;99155.72;;;21.98;26.18
47785;BME280;35233;55.686;37.848;2023-03-13T09:56:51;99165.00;;;22.05;25.57
47785;BME280;35233;55.686;37.848;2023-03-13T09:59:34;99168.63;;;22.15;25.93
47785;BME280;35233;55.686;37.848;2023-03-13T10:02:04;99172.47;;;22.34;25.48
47785;BME280;35233;55.686;37.848;2023-03-13T10:04:44;99169.09;;;22.32;25.74
47785;BME280;35233;55.686;37.848;2023-03-13T10:07:10;99186.34;;;22.50;25.24
47785;BME280;35233;55.686;37.848;2023-03-13T10:09:36;99168.72;;;22.57;24.95
47785;BME280;35233;55.686;37.848;2023-03-13T10:14:41;99176.56;;;22.49;25.50
47785;BME280;35233;55.686;37.848;2023-03-13T10:17:35;99193.25;;;22.43;25.55
47785;BME280;35233;55.686;37.848;2023-03-13T10:22:40;99192.59;;;22.19;25.66
47785;BME280;35233;55.686;37.848;2023-03-13T10:27:47;99199.16;;;21.93;26.19
47785;BME280;35233;55.686;37.848;2023-03-13T10:30:22;99207.13;;;21.84;26.14
47785;BME280;35233;55.686;37.848;2023-03-13T10:32:48;99194.19;;;21.66;26.36
47785;BME280;35233;55.686;37.848;2023-03-13T10:35:22;99207.78;;;21.65;26.08
47785;BME280;35233;55.686;37.848;2023-03-13T10:37:48;99209.63;;;21.64;26.31
47785;BME280;35233;55.686;37.848;2023-03-13T10:40:20;99215.25;;;21.61;26.33
47785;BME280;35233;55.686;37.848;2023-03-13T10:42:59;99206.09;;;21.53;26.67
47785;BME280;35233;55.686;37.848;2023-03-13T10:45:26;99213.16;;;21.54;26.39
47785;BME280;35233;55.686;37.848;2023-03-13T10:47:59;99215.47;;;21.58;26.14
47785;BME280;35233;55.686;37.848;2023-03-13T10:50:26;99230.22;;;21.75;26.17
47785;BME280;35233;55.686;37.848;2023-03-13T10:52:56;99238.03;;;21.89;25.72
47785;BME280;35233;55.686;37.848;2023-03-13T10:55:24;99229.38;;;21.86;25.76
47785;BME280;35233;55.686;37.848;2023-03-13T11:00:29;99246.94;;;21.90;26.14
47785;BME280;35233;55.686;37.848;2023-03-13T11:02:56;99236.94;;;21.92;26.18
47785;BME280;35233;55.686;37.848;2023-03-13T11:07:47;99250.50;;;21.90;26.10
47785;BME280;35233;55.686;37.848;2023-03-13T11:10:23;99252.94;;;21.93;26.20
47785;BME280;35233;55.686;37.848;2023-03-13T11:12:53;99242.81;;;21.86;25.84
47785;BME280;35233;55.686;37.848;2023-03-13T11:15:29;99243.81;;;21.74;25.73
47785;BME280;35233;55.686;37.848;2023-03-13T11:20:56;99269.22;;;21.69;26.17
47785;BME280;35233;55.686;37.848;2023-03-13T11:23:39;99272.03;;;21.68;26.20
47785;BME280;35233;55.686;37.848;2023-03-13T11:29:05;99284.63;;;21.56;26.43
47785;BME280;35233;55.686;37.848;2023-03-13T11:31:38;99284.75;;;21.55;26.38
47785;BME280;35233;55.686;37.848;2023-03-13T11:36:52;99299.78;;;21.57;26.14
47785;BME280;35233;55.686;37.848;2023-03-13T11:39:46;99291.00;;;21.44;26.19
47785;BME280;35233;55.686;37.848;2023-03-13T11:42:43;99285.81;;;21.41;26.05
47785;BME280;35233;55.686;37.848;2023-03-13T11:50:48;99312.13;;;21.60;26.29
47785;BME280;35233;55.686;37.848;2023-03-13T11:56:30;99315.16;;;21.55;26.37
47785;BME280;35233;55.686;37.848;2023-03-13T12:01:42;99318.34;;;21.60;25.74
47785;BME280;35233;55.686;37.848;2023-03-13T12:04:19;99318.72;;;21.56;25.88
47785;BME280;35233;55.686;37.848;2023-03-13T12:10:00;99330.66;;;21.40;26.27
47785;BME280;35233;55.686;37.848;2023-03-13T12:15:07;99325.47;;;21.26;26.72
47785;BME280;35233;55.686;37.848;2023-03-13T12:23:25;99343.16;;;21.17;26.24
47785;BME280;35233;55.686;37.848;2023-03-13T12:25:59;99350.63;;;21.72;25.91
47785;BME280;35233;55.686;37.848;2023-03-13T12:28:51;99337.66;;;21.65;25.77
47785;BME280;35233;55.686;37.848;2023-03-13T12:31:28;99344.28;;;21.61;26.38
47785;BME280;35233;55.686;37.848;2023-03-13T12:34:23;99336.06;;;21.63;25.82
47785;BME280;35233;55.686;37.848;2023-03-13T12:37:00;99330.19;;;21.58;26.19
47785;BME280;35233;55.686;37.848;2023-03-13T12:45:19;99346.09;;;21.72;26.02
47785;BME280;35233;55.686;37.848;2023-03-13T12:50:53;99353.53;;;21.68;25.80
47785;BME280;35233;55.686;37.848;2023-03-13T12:58:45;99364.53;;;21.65;26.04
47785;BME280;35233;55.686;37.848;2023-03-13T13:06:17;99372.09;;;21.60;26.39
47785;BME280;35233;55.686;37.848;2023-03-13T13:09:07;99378.97;;;21.64;25.71
47785;BME280;35233;55.686;37.848;2023-03-13T13:16:54;99364.81;;;21.85;25.47
47785;BME280;35233;55.686;37.848;2023-03-13T13:24:53;99378.84;;;21.66;25.82
47785;BME280;35233;55.686;37.848;2023-03-13T13:29:58;99388.97;;;21.51;26.02
47785;BME280;35233;55.686;37.848;2023-03-13T13:32:33;99394.22;;;21.53;26.14
47785;BME280;35233;55.686;37.848;2023-03-13T13:35:26;99386.63;;;21.46;25.76
47785;BME280;35233;55.686;37.848;2023-03-13T13:37:50;99386.38;;;21.50;26.24
47785;BME280;35233;55.686;37.848;2023-03-13T13:40:30;99386.75;;;21.45;25.92
47785;BME280;35233;55.686;37.848;2023-03-13T13:43:03;99392.13;;;21.45;25.98
47785;BME280;35233;55.686;37.848;2023-03-13T13:45:35;99398.59;;;21.42;25.88
47785;BME280;35233;55.686;37.848;2023-03-13T13:48:23;99390.41;;;21.44;26.03
47785;BME280;35233;55.686;37.848;2023-03-13T13:53:47;99402.97;;;21.43;26.02
47785;BME280;35233;55.686;37.848;2023-03-13T14:01:41;99394.56;;;21.48;25.95
47785;BME280;35233;55.686;37.848;2023-03-13T14:04:18;99397.88;;;21.52;26.05
47785;BME280;35233;55.686;37.848;2023-03-13T14:06:49;99411.81;;;21.57;25.56
47785;BME280;35233;55.686;37.848;2023-03-13T14:09:32;99412.94;;;21.65;25.82
47785;BME280;35233;55.686;37.848;2023-03-13T14:11:59;99417.47;;;21.65;25.40
47785;BME280;35233;55.686;37.848;2023-03-13T14:14:25;99420.72;;;21.57;25.63
47785;BME280;35233;55.686;37.848;2023-03-13T14:16:54;99425.13;;;21.47;25.70
47785;BME280;35233;55.686;37.848;2023-03-13T14:19:24;99440.50;;;21.45;25.92
47785;BME280;35233;55.686;37.848;2023-03-13T14:21:57;99439.00;;;21.41;25.68
47785;BME280;35233;55.686;37.848;2023-03-13T14:24:22;99435.81;;;21.36;25.92
47785;BME280;35233;55.686;37.848;2023-03-13T14:26:48;99409.75;;;21.25;25.51
47785;BME280;35233;55.686;37.848;2023-03-13T14:29:17;99438.38;;;21.37;25.96
47785;BME280;35233;55.686;37.848;2023-03-13T14:31:54;99446.44;;;21.37;25.58
47785;BME280;35233;55.686;37.848;2023-03-13T14:34:20;99450.31;;;21.33;25.94
47785;BME280;35233;55.686;37.848;2023-03-13T14:36:48;99447.75;;;21.32;26.10
47785;BME280;35233;55.686;37.848;2023-03-13T14:39:34;99437.69;;;21.22;25.85